Time;durP1;ratioP1;P1;durP2;ratioP2;P2;SDS_P1;SDS_P2;PMS_P1;PMS_P2;Temp;Humidity;BMP_temperature;BMP_pressure;BME280_temperature;BME280_humidity;BME280_pressure;Samples;Min_cycle;Max_cycle;Signal;HPM_P1;HPM_P2
2021/11/03 00:01:37;;;;;;;;;;;7.20;99.90;;;;;;5057635;28;19913;-82
2021/11/03 00:04:03;;;;;;;;;;;7.20;99.90;;;;;;5049472;28;19913;-81
2021/11/03 00:06:29;;;;;;;;;;;7.20;99.90;;;;;;5057431;28;19919;-86
2021/11/03 00:08:56;;;;;;;;;;;7.10;99.90;;;;;;5058203;28;19917;-83
2021/11/03 00:11:22;;;;;;;;;;;7.10;99.90;;;;;;5056072;28;19987;-78
2021/11/03 00:13:48;;;;;;;;;;;7.10;99.90;;;;;;5050589;28;19948;-77
2021/11/03 00:16:15;;;;;;;;;;;7.10;99.90;;;;;;5054941;28;20007;-84
2021/11/03 00:18:40;;;;;;;;;;;7.00;99.90;;;;;;5041730;28;20011;-80
2021/11/03 00:21:06;;;;;;;;;;;7.10;99.90;;;;;;5053009;28;20005;-79
2021/11/03 00:23:32;;;;;;;;;;;7.00;99.90;;;;;;5054981;28;19912;-80
2021/11/03 00:25:58;;;;;;;;;;;7.00;99.90;;;;;;5055125;28;19913;-81
2021/11/03 00:28:24;;;;;;;;;;;7.00;99.90;;;;;;5052816;28;20284;-80
2021/11/03 00:30:51;;;;;;;;;;;7.00;99.90;;;;;;5053177;28;19920;-80
2021/11/03 00:33:19;;;;;;;;;;;7.00;99.90;;;;;;5052875;28;20012;-79
2021/11/03 00:35:44;;;;;;;;;;;7.00;99.90;;;;;;5053616;28;19912;-79
2021/11/03 00:38:10;;;;;;;;;;;7.00;99.90;;;;;;5053418;28;19917;-80
2021/11/03 00:40:36;;;;;;;;;;;7.00;99.90;;;;;;5053375;28;19923;-80
2021/11/03 00:43:01;;;;;;;;;;;7.00;99.90;;;;;;5053317;28;19974;-80
2021/11/03 00:45:27;;;;;;;;;;;6.90;99.90;;;;;;5054632;28;19912;-80
2021/11/03 00:47:52;;;;;;;;;;;7.00;99.90;;;;;;5054716;28;19922;-79
2021/11/03 00:50:19;;;;;;;;;;;6.90;99.90;;;;;;5053114;28;19916;-79
2021/11/03 00:52:45;;;;;;;;;;;6.90;99.90;;;;;;5054591;28;19913;-80
2021/11/03 00:55:10;;;;;;;;;;;6.90;99.90;;;;;;5053897;28;20000;-80
2021/11/03 00:57:36;;;;;;;;;;;6.90;99.90;;;;;;5054027;28;19916;-80
2021/11/03 01:00:03;;;;;;;;;;;6.90;99.90;;;;;;5053006;28;19955;-79
2021/11/03 01:02:29;;;;;;;;;;;6.80;99.90;;;;;;5052778;28;19912;-79
2021/11/03 01:04:55;;;;;;;;;;;6.80;99.90;;;;;;5054484;28;20340;-80
2021/11/03 01:07:20;;;;;;;;;;;6.80;99.90;;;;;;5052359;28;19919;-78
2021/11/03 01:09:46;;;;;;;;;;;6.80;99.90;;;;;;5053632;28;19924;-78
2021/11/03 01:12:11;;;;;;;;;;;6.70;99.90;;;;;;5053433;28;19919;-79
2021/11/03 01:14:37;;;;;;;;;;;6.70;99.90;;;;;;5054374;28;19916;-79
2021/11/03 01:17:04;;;;;;;;;;;6.70;99.90;;;;;;5053747;28;19926;-78
2021/11/03 01:19:29;;;;;;;;;;;6.70;99.90;;;;;;5053880;28;19912;-79
2021/11/03 01:21:56;;;;;;;;;;;6.70;99.90;;;;;;5052854;28;20297;-80
2021/11/03 01:24:22;;;;;;;;;;;6.60;99.90;;;;;;5053509;28;19913;-79
2021/11/03 01:26:48;;;;;;;;;;;6.60;99.90;;;;;;5053306;28;19920;-79
2021/11/03 01:29:13;;;;;;;;;;;6.50;99.90;;;;;;5052722;28;19960;-80
2021/11/03 01:31:39;;;;;;;;;;;6.40;99.90;;;;;;5053243;28;19912;-80
2021/11/03 01:34:06;;;;;;;;;;;6.40;99.90;;;;;;5054021;28;20392;-79
2021/11/03 01:36:31;;;;;;;;;;;6.50;99.90;;;;;;5052509;28;19912;-79
2021/11/03 01:38:57;;;;;;;;;;;6.40;99.90;;;;;;5049391;28;20396;-79
2021/11/03 01:41:22;;;;;;;;;;;6.40;99.90;;;;;;5052900;28;19912;-79
2021/11/03 01:43:50;;;;;;;;;;;6.40;99.90;;;;;;5052356;28;19919;-79
2021/11/03 01:46:37;;;;;;;;;;;6.40;99.90;;;;;;5051933;28;19920;-79
2021/11/03 01:49:14;;;;;;;;;;;6.40;99.90;;;;;;5053448;28;19913;-79
2021/11/03 01:51:44;;;;;;;;;;;6.30;99.90;;;;;;5052234;28;19913;-79
2021/11/03 01:54:12;;;;;;;;;;;6.30;99.90;;;;;;5051610;28;20001;-80
2021/11/03 01:56:38;;;;;;;;;;;6.30;99.90;;;;;;5053007;28;19913;-79
2021/11/03 01:59:06;;;;;;;;;;;6.30;99.90;;;;;;5053246;28;19912;-79
2021/11/03 02:01:33;;;;;;;;;;;6.30;99.90;;;;;;5051748;28;19917;-79
2021/11/03 02:03:58;;;;;;;;;;;6.30;99.90;;;;;;5052381;28;19913;-79
2021/11/03 02:06:25;;;;;;;;;;;6.30;99.90;;;;;;5051364;28;19999;-79
2021/11/03 02:08:51;;;;;;;;;;;6.30;99.90;;;;;;5053239;28;19913;-79
2021/11/03 02:11:17;;;;;;;;;;;6.40;99.90;;;;;;5052499;28;19971;-79
2021/11/03 02:13:44;;;;;;;;;;;6.40;99.90;;;;;;5053075;28;19967;-79
2021/11/03 02:16:13;;;;;;;;;;;6.40;99.90;;;;;;5051659;28;20400;-80
2021/11/03 02:18:39;;;;;;;;;;;6.50;99.90;;;;;;5052893;28;20285;-78
2021/11/03 02:21:06;;;;;;;;;;;6.50;99.90;;;;;;5053066;28;19913;-80
2021/11/03 02:23:49;;;;;;;;;;;6.50;99.90;;;;;;5053273;28;20386;-78
2021/11/03 02:26:18;;;;;;;;;;;6.50;99.90;;;;;;5051726;28;19913;-79
2021/11/03 02:28:46;;;;;;;;;;;6.50;99.90;;;;;;5052808;28;19917;-79
2021/11/03 02:31:47;;;;;;;;;;;6.50;99.90;;;;;;5052311;28;20027;-79
2021/11/03 02:34:17;;;;;;;;;;;6.50;99.90;;;;;;4994597;28;19913;-80
2021/11/03 02:36:51;;;;;;;;;;;6.50;99.90;;;;;;5040602;28;19909;-80
2021/11/03 02:39:18;;;;;;;;;;;6.40;99.90;;;;;;5055794;28;19935;-79
2021/11/03 02:41:44;;;;;;;;;;;6.50;99.90;;;;;;5055983;28;19923;-80
2021/11/03 02:44:12;;;;;;;;;;;6.40;99.90;;;;;;5054973;28;20015;-79
2021/11/03 02:46:38;;;;;;;;;;;6.40;99.90;;;;;;5056951;28;19909;-79
2021/11/03 02:49:04;;;;;;;;;;;6.40;99.90;;;;;;5055298;28;20392;-79
2021/11/03 02:51:37;;;;;;;;;;;6.30;99.90;;;;;;5056390;28;19908;-78
2021/11/03 02:54:05;;;;;;;;;;;6.30;99.90;;;;;;5056199;28;19913;-78
2021/11/03 02:56:36;;;;;;;;;;;6.20;99.90;;;;;;5055440;28;19908;-79
2021/11/03 02:59:03;;;;;;;;;;;6.20;99.90;;;;;;5055779;28;19912;-79
2021/11/03 03:01:33;;;;;;;;;;;6.20;99.90;;;;;;5055596;28;19982;-79
2021/11/03 03:03:59;;;;;;;;;;;6.10;99.90;;;;;;5056695;28;19913;-79
2021/11/03 03:06:27;;;;;;;;;;;6.10;99.90;;;;;;5056228;28;19909;-79
2021/11/03 03:08:53;;;;;;;;;;;6.10;99.90;;;;;;5056547;28;19920;-78
2021/11/03 03:11:19;;;;;;;;;;;6.10;99.90;;;;;;5054645;28;20012;-79
2021/11/03 03:13:45;;;;;;;;;;;6.10;99.90;;;;;;5054954;28;19959;-79
2021/11/03 03:16:11;;;;;;;;;;;6.00;99.90;;;;;;5055342;28;20353;-79
2021/11/03 03:18:36;;;;;;;;;;;6.00;99.90;;;;;;5054333;28;20389;-80
2021/11/03 03:21:02;;;;;;;;;;;6.00;99.90;;;;;;5054447;28;19959;-80
2021/11/03 03:23:29;;;;;;;;;;;6.00;99.90;;;;;;5056586;28;19915;-79
2021/11/03 03:25:56;;;;;;;;;;;5.90;99.90;;;;;;5037959;28;19916;-79
2021/11/03 03:28:22;;;;;;;;;;;5.90;99.90;;;;;;5054553;28;20000;-79
2021/11/03 03:30:47;;;;;;;;;;;5.90;99.90;;;;;;5054417;28;20387;-80
2021/11/03 03:33:13;;;;;;;;;;;5.90;99.90;;;;;;5054780;28;19913;-80
2021/11/03 03:35:38;;;;;;;;;;;5.80;99.90;;;;;;5055062;28;19909;-80
2021/11/03 03:38:03;;;;;;;;;;;5.80;99.90;;;;;;5056196;28;19916;-81
2021/11/03 03:40:29;;;;;;;;;;;5.80;99.90;;;;;;5056176;28;19909;-80
2021/11/03 03:42:55;;;;;;;;;;;5.80;99.90;;;;;;5055629;28;19942;-80
2021/11/03 03:45:21;;;;;;;;;;;5.70;99.90;;;;;;5055692;28;19917;-79
2021/11/03 03:47:46;;;;;;;;;;;5.70;99.90;;;;;;5054701;28;19912;-79
2021/11/03 03:50:12;;;;;;;;;;;5.70;99.90;;;;;;5055259;28;19970;-80
2021/11/03 03:52:38;;;;;;;;;;;5.70;99.90;;;;;;5055549;28;19912;-79
2021/11/03 03:55:04;;;;;;;;;;;5.60;99.90;;;;;;5056128;28;20266;-81
2021/11/03 03:57:30;;;;;;;;;;;5.60;99.90;;;;;;5055473;28;19913;-79
2021/11/03 03:59:55;;;;;;;;;;;5.60;99.90;;;;;;5054409;28;19970;-80
2021/11/03 04:02:21;;;;;;;;;;;5.60;99.90;;;;;;5054101;28;19913;-78
2021/11/03 04:04:46;;;;;;;;;;;5.50;99.90;;;;;;5055155;28;19913;-79
2021/11/03 04:07:12;;;;;;;;;;;5.50;99.90;;;;;;5055742;28;19908;-79
2021/11/03 04:09:37;;;;;;;;;;;5.50;99.90;;;;;;5053668;28;19917;-80
2021/11/03 04:12:03;;;;;;;;;;;5.50;99.90;;;;;;5053266;28;19916;-79
2021/11/03 04:14:28;;;;;;;;;;;5.50;99.90;;;;;;5054976;28;20557;-79
2021/11/03 04:16:54;;;;;;;;;;;5.40;99.90;;;;;;5054186;28;19912;-79
2021/11/03 04:19:19;;;;;;;;;;;5.30;99.90;;;;;;5054103;28;19956;-78
2021/11/03 04:21:45;;;;;;;;;;;5.10;99.90;;;;;;5054901;28;20278;-79
2021/11/03 04:24:10;;;;;;;;;;;5.00;99.90;;;;;;5054729;28;19913;-80
2021/11/03 04:26:40;;;;;;;;;;;4.90;99.90;;;;;;5053527;28;20332;-79
2021/11/03 04:29:06;;;;;;;;;;;4.80;99.90;;;;;;5053383;28;19924;-80
2021/11/03 04:31:32;;;;;;;;;;;4.90;99.90;;;;;;5050446;28;19923;-80
2021/11/03 04:33:57;;;;;;;;;;;4.80;99.90;;;;;;5054923;28;20000;-79
2021/11/03 04:36:23;;;;;;;;;;;4.80;99.90;;;;;;5054853;28;19912;-80
2021/11/03 04:38:49;;;;;;;;;;;4.80;99.90;;;;;;5054926;28;19913;-80
2021/11/03 04:41:15;;;;;;;;;;;4.90;99.90;;;;;;5053150;28;19966;-79
2021/11/03 04:43:41;;;;;;;;;;;5.00;99.90;;;;;;5053008;28;20296;-78
2021/11/03 04:46:06;;;;;;;;;;;4.90;99.90;;;;;;5052326;28;19913;-79
2021/11/03 04:48:32;;;;;;;;;;;4.80;99.90;;;;;;5053025;28;20391;-79
2021/11/03 04:50:57;;;;;;;;;;;4.90;99.90;;;;;;5054234;28;19938;-80
2021/11/03 04:53:24;;;;;;;;;;;4.90;99.90;;;;;;5053255;28;20406;-79
2021/11/03 04:55:49;;;;;;;;;;;5.00;99.90;;;;;;5052968;28;20324;-79
2021/11/03 04:58:15;;;;;;;;;;;5.00;99.90;;;;;;5052876;28;19919;-79
2021/11/03 05:00:41;;;;;;;;;;;5.00;99.90;;;;;;5052695;28;19964;-79
2021/11/03 05:03:07;;;;;;;;;;;5.00;99.90;;;;;;5050032;28;19913;-79
2021/11/03 05:05:34;;;;;;;;;;;5.10;99.90;;;;;;5054567;28;20365;-79
2021/11/03 05:07:59;;;;;;;;;;;5.10;99.90;;;;;;5053508;28;19952;-79
2021/11/03 05:10:25;;;;;;;;;;;5.10;99.90;;;;;;5054579;28;19970;-79
2021/11/03 05:12:50;;;;;;;;;;;5.10;99.90;;;;;;5052557;28;19913;-79
2021/11/03 05:15:16;;;;;;;;;;;5.00;99.90;;;;;;5061072;28;19951;-80
2021/11/03 05:17:41;;;;;;;;;;;5.10;99.90;;;;;;5068736;28;19920;-78
2021/11/03 05:20:07;;;;;;;;;;;5.10;99.90;;;;;;5071538;28;19913;-79
2021/11/03 05:22:33;;;;;;;;;;;5.10;99.90;;;;;;5070950;28;19920;-78
2021/11/03 05:24:59;;;;;;;;;;;5.20;99.90;;;;;;5070183;28;19972;-79
2021/11/03 05:27:25;;;;;;;;;;;5.20;99.90;;;;;;5073814;28;19959;-77
2021/11/03 05:29:51;;;;;;;;;;;5.30;99.90;;;;;;5068218;28;19911;-78
2021/11/03 05:32:17;;;;;;;;;;;5.20;99.90;;;;;;5070237;28;20424;-78
2021/11/03 05:34:42;;;;;;;;;;;5.20;99.90;;;;;;5075573;28;19913;-78
2021/11/03 05:37:09;;;;;;;;;;;5.20;99.90;;;;;;5076744;28;19917;-77
2021/11/03 05:39:35;;;;;;;;;;;5.10;99.90;;;;;;5074236;28;19916;-78
2021/11/03 05:42:00;;;;;;;;;;;5.00;99.90;;;;;;5075191;28;19919;-78
2021/11/03 05:44:26;;;;;;;;;;;5.00;99.90;;;;;;5073376;28;19913;-78
2021/11/03 05:46:53;;;;;;;;;;;5.00;99.90;;;;;;5074670;28;19912;-78
2021/11/03 05:49:20;;;;;;;;;;;5.00;99.90;;;;;;5074534;28;19909;-77
2021/11/03 05:51:47;;;;;;;;;;;5.10;99.90;;;;;;5072979;28;19976;-78
2021/11/03 05:54:13;;;;;;;;;;;5.00;99.90;;;;;;5073817;28;19909;-78
2021/11/03 05:56:38;;;;;;;;;;;5.10;99.90;;;;;;5060189;28;19935;-78
2021/11/03 05:59:04;;;;;;;;;;;5.00;99.90;;;;;;5077210;28;19897;-78
2021/11/03 06:01:30;;;;;;;;;;;5.00;99.90;;;;;;5077308;28;19922;-78
2021/11/03 06:03:55;;;;;;;;;;;5.00;99.90;;;;;;5078211;28;19908;-78
2021/11/03 06:06:21;;;;;;;;;;;5.00;99.90;;;;;;5077180;28;19992;-78
2021/11/03 06:08:50;;;;;;;;;;;5.10;99.90;;;;;;5072883;28;19917;-79
2021/11/03 06:11:17;;;;;;;;;;;5.10;99.90;;;;;;5062937;28;20389;-79
2021/11/03 06:13:46;;;;;;;;;;;5.10;99.90;;;;;;5060504;28;19913;-79
2021/11/03 06:16:12;;;;;;;;;;;5.20;99.90;;;;;;5058590;28;20292;-79
2021/11/03 06:18:38;;;;;;;;;;;5.20;99.90;;;;;;5058703;28;19909;-79
2021/11/03 06:21:03;;;;;;;;;;;5.20;99.90;;;;;;5058179;28;19924;-79
2021/11/03 06:23:31;;;;;;;;;;;5.30;99.90;;;;;;5057293;28;19959;-79
2021/11/03 06:25:57;;;;;;;;;;;5.30;99.90;;;;;;5057188;28;19955;-79
2021/11/03 06:28:23;;;;;;;;;;;5.20;99.90;;;;;;5056042;28;19924;-79
2021/11/03 06:30:49;;;;;;;;;;;5.30;99.90;;;;;;5055516;28;19928;-78
2021/11/03 06:33:14;;;;;;;;;;;5.30;99.90;;;;;;5052178;28;19919;-78
2021/11/03 06:35:40;;;;;;;;;;;5.20;99.90;;;;;;5052768;28;19913;-79
2021/11/03 06:38:07;;;;;;;;;;;5.30;99.90;;;;;;5052871;28;19912;-78
2021/11/03 06:40:33;;;;;;;;;;;5.30;99.90;;;;;;5053612;28;20347;-79
2021/11/03 06:42:58;;;;;;;;;;;5.30;99.90;;;;;;5052707;28;19913;-80
2021/11/03 06:45:24;;;;;;;;;;;5.30;99.90;;;;;;5054116;28;20373;-80
2021/11/03 06:47:50;;;;;;;;;;;5.30;99.90;;;;;;5054248;28;19913;-79
2021/11/03 06:50:17;;;;;;;;;;;5.30;99.90;;;;;;5054533;28;19927;-79
2021/11/03 06:52:43;;;;;;;;;;;5.10;99.90;;;;;;5055072;28;19915;-79
2021/11/03 06:55:09;;;;;;;;;;;5.10;99.90;;;;;;5052507;28;19951;-80
2021/11/03 06:57:35;;;;;;;;;;;5.20;99.90;;;;;;5054313;28;20376;-79
2021/11/03 07:00:04;;;;;;;;;;;5.20;99.90;;;;;;5052657;28;19913;-79
2021/11/03 07:02:29;;;;;;;;;;;5.20;99.90;;;;;;5052935;28;19931;-78
2021/11/03 07:04:55;;;;;;;;;;;5.20;99.90;;;;;;5051755;28;20154;-79
2021/11/03 07:07:20;;;;;;;;;;;5.30;99.90;;;;;;5052339;28;19962;-79
2021/11/03 07:09:45;;;;;;;;;;;5.30;99.90;;;;;;5053294;28;19917;-80
2021/11/03 07:12:11;;;;;;;;;;;5.30;99.90;;;;;;5052118;28;19913;-80
2021/11/03 07:14:37;;;;;;;;;;;5.30;99.90;;;;;;5051549;28;19913;-79
2021/11/03 07:17:02;;;;;;;;;;;5.30;99.90;;;;;;5051512;28;19919;-80
2021/11/03 07:19:28;;;;;;;;;;;5.30;99.90;;;;;;5048348;28;19913;-80
2021/11/03 07:21:53;;;;;;;;;;;5.40;99.90;;;;;;5051029;28;20246;-79
2021/11/03 07:24:19;;;;;;;;;;;5.40;99.90;;;;;;5055433;28;19912;-80
2021/11/03 07:26:45;;;;;;;;;;;5.50;99.90;;;;;;5055371;28;19999;-79
2021/11/03 07:29:11;;;;;;;;;;;5.50;99.90;;;;;;5054290;28;19928;-81
2021/11/03 07:31:37;;;;;;;;;;;5.40;99.90;;;;;;5056253;28;19908;-78
2021/11/03 07:34:03;;;;;;;;;;;5.50;99.90;;;;;;5054501;28;19913;-79
2021/11/03 07:36:30;;;;;;;;;;;5.50;99.90;;;;;;5056370;28;20341;-79
2021/11/03 07:38:56;;;;;;;;;;;5.60;99.90;;;;;;5055936;28;19927;-79
2021/11/03 07:41:21;;;;;;;;;;;5.60;99.90;;;;;;5055158;28;20348;-79
2021/11/03 07:43:48;;;;;;;;;;;5.60;99.90;;;;;;5056384;28;20007;-79
2021/11/03 07:46:13;;;;;;;;;;;5.60;99.90;;;;;;5054825;28;20012;-79
2021/11/03 07:48:39;;;;;;;;;;;5.60;99.90;;;;;;5054649;28;20361;-79
2021/11/03 07:51:06;;;;;;;;;;;5.50;99.90;;;;;;5055690;28;19969;-79
2021/11/03 07:53:33;;;;;;;;;;;5.60;99.90;;;;;;5053349;28;19917;-79
2021/11/03 07:56:00;;;;;;;;;;;5.60;99.90;;;;;;5054591;28;19964;-79
2021/11/03 07:58:27;;;;;;;;;;;5.60;99.90;;;;;;5054962;28;19918;-78
2021/11/03 08:00:53;;;;;;;;;;;5.80;99.90;;;;;;5054246;28;19959;-80
2021/11/03 08:03:19;;;;;;;;;;;5.80;99.90;;;;;;5055237;28;19931;-81
2021/11/03 08:05:45;;;;;;;;;;;5.90;99.90;;;;;;5054644;28;19908;-81
2021/11/03 08:08:13;;;;;;;;;;;6.00;99.90;;;;;;5055006;28;19917;-79
2021/11/03 08:10:42;;;;;;;;;;;6.00;99.90;;;;;;5054248;28;19917;-80
2021/11/03 08:13:13;;;;;;;;;;;6.10;99.90;;;;;;5053899;28;19909;-80
2021/11/03 08:15:38;;;;;;;;;;;6.10;99.90;;;;;;5054311;28;19913;-80
2021/11/03 08:18:05;;;;;;;;;;;6.20;99.90;;;;;;5053114;28;19959;-80
2021/11/03 08:20:30;;;;;;;;;;;6.10;99.90;;;;;;5053634;28;19916;-79
2021/11/03 08:22:59;;;;;;;;;;;6.10;99.90;;;;;;5054916;28;19913;-79
2021/11/03 08:25:25;;;;;;;;;;;6.10;99.90;;;;;;5053809;28;19920;-80
2021/11/03 08:27:51;;;;;;;;;;;6.20;99.90;;;;;;5052576;28;19913;-79
2021/11/03 08:30:17;;;;;;;;;;;6.30;99.90;;;;;;5054154;28;19928;-80
2021/11/03 08:32:49;;;;;;;;;;;6.40;99.90;;;;;;5053507;28;19944;-82
2021/11/03 08:35:15;;;;;;;;;;;6.40;99.90;;;;;;5054477;28;20293;-81
2021/11/03 08:37:41;;;;;;;;;;;6.40;99.90;;;;;;5056821;28;19920;-87
2021/11/03 08:40:08;;;;;;;;;;;6.50;99.90;;;;;;5060434;28;19913;-86
2021/11/03 08:42:34;;;;;;;;;;;6.50;99.90;;;;;;5060352;28;19913;-84
2021/11/03 08:44:59;;;;;;;;;;;6.50;99.90;;;;;;5059692;28;19991;-84
2021/11/03 08:47:25;;;;;;;;;;;6.50;99.90;;;;;;5059630;28;20382;-89
2021/11/03 08:49:51;;;;;;;;;;;6.50;99.90;;;;;;5059297;28;19924;-85
2021/11/03 08:52:17;;;;;;;;;;;6.50;99.90;;;;;;5058017;28;19919;-91
2021/11/03 08:54:47;;;;;;;;;;;6.50;99.90;;;;;;5060240;28;19913;-88
2021/11/03 08:57:13;;;;;;;;;;;6.60;99.90;;;;;;5060448;28;19935;-87
2021/11/03 08:59:39;;;;;;;;;;;6.80;99.90;;;;;;5056229;28;20284;-79
2021/11/03 09:02:07;;;;;;;;;;;6.90;99.90;;;;;;5055307;28;19963;-86
2021/11/03 09:04:34;;;;;;;;;;;7.00;99.90;;;;;;5054653;28;19913;-82
2021/11/03 09:06:59;;;;;;;;;;;7.00;99.90;;;;;;5052928;28;19913;-81
2021/11/03 09:09:26;;;;;;;;;;;7.20;99.90;;;;;;5053280;28;20016;-82
2021/11/03 09:11:52;;;;;;;;;;;7.30;99.90;;;;;;5054477;28;19913;-82
2021/11/03 09:14:21;;;;;;;;;;;7.40;99.90;;;;;;5055177;28;19919;-81
2021/11/03 09:16:48;;;;;;;;;;;7.50;99.90;;;;;;5052572;28;19967;-83
2021/11/03 09:19:13;;;;;;;;;;;7.70;99.90;;;;;;5053434;28;20434;-82
2021/11/03 09:21:39;;;;;;;;;;;7.80;99.90;;;;;;5054107;28;19916;-82
2021/11/03 09:24:05;;;;;;;;;;;8.00;99.90;;;;;;5053592;28;19977;-82
2021/11/03 09:26:31;;;;;;;;;;;8.10;99.90;;;;;;5054582;28;19913;-81
2021/11/03 09:28:59;;;;;;;;;;;8.20;99.90;;;;;;5053574;28;19917;-81
2021/11/03 09:31:25;;;;;;;;;;;8.30;99.90;;;;;;5053794;28;19928;-82
2021/11/03 09:33:52;;;;;;;;;;;8.40;99.90;;;;;;5054617;28;21635;-80
2021/11/03 09:36:19;;;;;;;;;;;8.50;99.90;;;;;;5053669;28;19912;-81
2021/11/03 09:38:45;;;;;;;;;;;8.50;99.90;;;;;;5052897;28;19952;-81
2021/11/03 09:41:11;;;;;;;;;;;8.50;99.90;;;;;;5054705;28;19967;-81
2021/11/03 09:43:38;;;;;;;;;;;8.70;99.90;;;;;;5053166;28;20270;-81
2021/11/03 09:46:19;;;;;;;;;;;8.80;99.90;;;;;;5051319;28;19919;-82
2021/11/03 09:48:47;;;;;;;;;;;8.90;99.90;;;;;;5050572;28;20019;-81
2021/11/03 09:51:16;;;;;;;;;;;8.90;99.90;;;;;;5053797;28;20003;-82
2021/11/03 09:53:47;;;;;;;;;;;8.90;99.90;;;;;;5053500;28;20361;-82
2021/11/03 09:56:15;;;;;;;;;;;9.00;99.90;;;;;;5056864;28;20432;-88
2021/11/03 09:58:52;;;;;;;;;;;9.00;99.90;;;;;;5057036;28;19935;-82
2021/11/03 10:01:20;;;;;;;;;;;9.00;99.90;;;;;;5054605;28;20228;-81
2021/11/03 10:03:46;;;;;;;;;;;9.20;99.90;;;;;;5055711;28;19917;-83
2021/11/03 10:06:11;;;;;;;;;;;9.30;99.90;;;;;;5056393;28;19913;-82
2021/11/03 10:08:38;;;;;;;;;;;9.20;99.90;;;;;;5060959;28;19980;-84
2021/11/03 10:11:12;;;;;;;;;;;9.20;99.90;;;;;;5055789;28;20446;-85
2021/11/03 10:13:39;;;;;;;;;;;9.30;99.90;;;;;;5034855;28;19913;-82
2021/11/03 10:16:10;;;;;;;;;;;9.20;99.90;;;;;;5034301;28;19914;-85
2021/11/03 10:18:52;;;;;;;;;;;9.20;99.90;;;;;;5034616;28;20263;-85
2021/11/03 10:21:20;;;;;;;;;;;9.20;99.90;;;;;;5034822;28;20015;-85
2021/11/03 10:23:53;;;;;;;;;;;9.10;99.90;;;;;;5034609;28;19925;-84
2021/11/03 10:26:19;;;;;;;;;;;9.10;99.90;;;;;;5034601;28;19913;-84
2021/11/03 10:28:46;;;;;;;;;;;9.10;99.90;;;;;;5034287;28;19921;-84
2021/11/03 10:31:24;;;;;;;;;;;9.20;99.90;;;;;;5034286;28;19923;-84
2021/11/03 10:33:57;;;;;;;;;;;9.30;99.90;;;;;;5035067;28;19996;-84
2021/11/03 10:36:23;;;;;;;;;;;9.30;99.90;;;;;;5034766;28;19919;-85
2021/11/03 10:38:53;;;;;;;;;;;9.40;99.90;;;;;;5046190;28;19987;-84
2021/11/03 10:41:29;;;;;;;;;;;9.50;99.90;;;;;;5055613;28;19913;-84
2021/11/03 10:44:18;;;;;;;;;;;9.50;99.90;;;;;;5053043;28;20407;-84
2021/11/03 10:46:52;;;;;;;;;;;9.60;99.90;;;;;;5052088;28;20282;-84
2021/11/03 10:49:33;;;;;;;;;;;9.90;99.90;;;;;;5053892;28;19912;-82
2021/11/03 10:52:38;;;;;;;;;;;10.10;99.90;;;;;;5054816;28;19919;-84
2021/11/03 10:55:14;;;;;;;;;;;10.20;99.90;;;;;;5054092;28;20377;-85
2021/11/03 10:57:43;;;;;;;;;;;10.20;99.90;;;;;;5055231;28;19935;-83
2021/11/03 11:00:20;;;;;;;;;;;10.20;99.90;;;;;;5059456;28;20401;-83
2021/11/03 11:02:50;;;;;;;;;;;10.10;99.90;;;;;;5057531;28;20380;-84
2021/11/03 11:05:18;;;;;;;;;;;10.10;99.90;;;;;;5057318;28;20289;-84
2021/11/03 11:07:49;;;;;;;;;;;10.00;99.90;;;;;;5058488;28;19966;-82
2021/11/03 11:10:19;;;;;;;;;;;9.90;99.90;;;;;;5058305;28;19917;-82
2021/11/03 11:12:45;;;;;;;;;;;9.80;99.90;;;;;;5059419;28;19912;-83
2021/11/03 11:15:14;;;;;;;;;;;9.60;99.90;;;;;;5058173;28;19919;-83
2021/11/03 11:17:48;;;;;;;;;;;9.60;99.90;;;;;;5059394;28;20058;-82
2021/11/03 11:20:36;;;;;;;;;;;9.60;99.90;;;;;;5059855;28;19952;-83
2021/11/03 11:23:09;;;;;;;;;;;9.50;99.90;;;;;;5058185;28;19912;-83
2021/11/03 11:25:41;;;;;;;;;;;9.60;99.90;;;;;;5058237;28;20351;-82
2021/11/03 11:28:36;;;;;;;;;;;9.60;99.90;;;;;;5059531;28;20034;-83
2021/11/03 11:31:08;;;;;;;;;;;9.70;99.90;;;;;;5050381;28;19924;-83
2021/11/03 11:33:43;;;;;;;;;;;9.80;99.90;;;;;;5059042;28;20132;-84
2021/11/03 11:36:09;;;;;;;;;;;9.90;99.90;;;;;;5057891;28;19919;-83
2021/11/03 11:38:41;;;;;;;;;;;9.90;99.90;;;;;;5056838;28;19950;-82
2021/11/03 11:41:19;;;;;;;;;;;10.00;99.90;;;;;;5058163;28;20346;-82
2021/11/03 11:43:54;;;;;;;;;;;10.10;99.90;;;;;;5057907;28;19917;-84
2021/11/03 11:46:24;;;;;;;;;;;10.20;99.90;;;;;;5057850;28;19913;-83
2021/11/03 11:48:52;;;;;;;;;;;10.30;99.90;;;;;;5058200;28;20329;-84
2021/11/03 11:51:27;;;;;;;;;;;10.40;99.90;;;;;;5057987;28;19916;-83
2021/11/03 11:53:55;;;;;;;;;;;10.40;99.90;;;;;;5057165;28;20389;-83
2021/11/03 11:56:27;;;;;;;;;;;10.50;99.90;;;;;;5058288;28;19923;-83
2021/11/03 11:58:53;;;;;;;;;;;10.60;99.90;;;;;;5057460;28;19913;-83
2021/11/03 12:01:19;;;;;;;;;;;10.60;99.90;;;;;;5058620;28;19912;-83
2021/11/03 12:04:11;;;;;;;;;;;10.60;99.90;;;;;;5055912;28;19912;-82
2021/11/03 12:06:39;;;;;;;;;;;10.60;99.90;;;;;;5056645;28;19916;-83
2021/11/03 12:09:19;;;;;;;;;;;10.70;99.90;;;;;;5056252;28;20339;-82
2021/11/03 12:11:49;;;;;;;;;;;10.70;99.90;;;;;;5057119;28;19913;-82
2021/11/03 12:14:36;;;;;;;;;;;10.70;99.90;;;;;;5058470;28;20407;-83
2021/11/03 12:17:07;;;;;;;;;;;10.70;99.90;;;;;;5057596;28;19970;-82
2021/11/03 12:19:36;;;;;;;;;;;10.70;99.90;;;;;;5057421;28;19931;-83
2021/11/03 12:22:03;;;;;;;;;;;10.80;99.90;;;;;;5056015;28;20430;-82
2021/11/03 12:24:29;;;;;;;;;;;10.80;99.90;;;;;;5056829;28;20335;-81
2021/11/03 12:27:14;;;;;;;;;;;10.80;99.90;;;;;;5056904;28;19966;-82
2021/11/03 12:29:41;;;;;;;;;;;10.90;99.90;;;;;;5055507;28;19927;-82
2021/11/03 12:32:20;;;;;;;;;;;10.90;99.90;;;;;;5055437;28;20296;-83
2021/11/03 12:34:45;;;;;;;;;;;10.80;99.90;;;;;;5056701;28;19916;-82
2021/11/03 12:37:23;;;;;;;;;;;10.80;99.90;;;;;;5056988;28;20397;-82
2021/11/03 12:39:51;;;;;;;;;;;10.90;99.90;;;;;;5036506;28;19913;-82
2021/11/03 12:42:21;;;;;;;;;;;10.90;99.90;;;;;;5036789;28;19992;-81
2021/11/03 12:44:49;;;;;;;;;;;10.90;99.90;;;;;;5035583;28;20431;-82
2021/11/03 12:47:20;;;;;;;;;;;10.90;99.90;;;;;;5036779;28;19913;-82
2021/11/03 12:49:57;;;;;;;;;;;11.00;99.90;;;;;;5034991;28;20427;-81
2021/11/03 12:52:26;;;;;;;;;;;11.10;99.90;;;;;;5034605;28;19909;-83
2021/11/03 12:54:52;;;;;;;;;;;11.10;99.90;;;;;;5034986;28;19910;-81
2021/11/03 12:57:21;;;;;;;;;;;11.10;99.90;;;;;;5035155;28;19909;-82
2021/11/03 12:59:58;;;;;;;;;;;11.10;99.90;;;;;;5035487;28;19909;-80
2021/11/03 13:02:24;;;;;;;;;;;11.10;99.90;;;;;;5035679;28;19909;-81
2021/11/03 13:04:59;;;;;;;;;;;11.20;99.90;;;;;;5036337;28;19940;-81
2021/11/03 13:07:26;;;;;;;;;;;11.20;99.90;;;;;;5038153;28;19916;-81
2021/11/03 13:10:13;;;;;;;;;;;11.30;99.90;;;;;;5054106;28;19917;-81
2021/11/03 13:12:39;;;;;;;;;;;11.20;99.90;;;;;;5055305;28;19916;-82
2021/11/03 13:15:17;;;;;;;;;;;11.20;99.90;;;;;;5055293;28;19909;-81
2021/11/03 13:17:50;;;;;;;;;;;11.20;99.90;;;;;;5055432;28;20002;-82
2021/11/03 13:20:26;;;;;;;;;;;11.20;99.90;;;;;;5053268;28;19948;-80
2021/11/03 13:22:52;;;;;;;;;;;11.30;99.90;;;;;;5055051;28;20005;-81
2021/11/03 13:25:23;;;;;;;;;;;11.30;99.90;;;;;;5055000;28;19909;-81
2021/11/03 13:27:49;;;;;;;;;;;11.40;99.90;;;;;;5054993;28;20054;-81
2021/11/03 13:30:28;;;;;;;;;;;11.40;99.90;;;;;;5053307;28;19917;-81
2021/11/03 13:32:59;;;;;;;;;;;11.30;99.90;;;;;;5054642;28;19960;-82
2021/11/03 13:35:30;;;;;;;;;;;11.20;99.90;;;;;;5053568;28;19913;-82
2021/11/03 13:37:57;;;;;;;;;;;11.30;99.90;;;;;;5052508;28;19923;-81
2021/11/03 13:40:34;;;;;;;;;;;11.30;99.90;;;;;;5054566;28;19912;-82
2021/11/03 13:42:59;;;;;;;;;;;11.30;99.90;;;;;;5056905;28;19975;-81
2021/11/03 13:45:29;;;;;;;;;;;11.40;99.90;;;;;;5061564;28;20326;-80
2021/11/03 13:48:13;;;;;;;;;;;11.50;99.90;;;;;;5052822;28;19909;-81
2021/11/03 13:50:51;;;;;;;;;;;11.40;99.90;;;;;;5052743;28;19916;-80
2021/11/03 13:53:17;;;;;;;;;;;11.40;99.90;;;;;;5058771;28;19950;-83
2021/11/03 13:56:06;;;;;;;;;;;11.40;99.90;;;;;;5069358;28;19983;-84
2021/11/03 13:58:35;;;;;;;;;;;11.40;99.90;;;;;;5056345;28;19984;-84
2021/11/03 14:01:13;;;;;;;;;;;11.50;99.90;;;;;;5055106;28;19956;-81
2021/11/03 14:03:44;;;;;;;;;;;11.50;99.90;;;;;;5054851;28;20280;-85
2021/11/03 14:06:12;;;;;;;;;;;11.50;99.90;;;;;;5055955;28;19935;-83
2021/11/03 14:08:38;;;;;;;;;;;11.50;99.90;;;;;;5062743;28;19939;-84
2021/11/03 14:11:03;;;;;;;;;;;11.60;99.90;;;;;;5056227;28;20339;-87
2021/11/03 14:13:29;;;;;;;;;;;11.60;99.90;;;;;;5056018;28;19958;-83
2021/11/03 14:16:05;;;;;;;;;;;11.60;99.90;;;;;;5057971;28;20404;-85
2021/11/03 14:18:31;;;;;;;;;;;11.60;99.90;;;;;;5062328;28;20002;-84
2021/11/03 14:20:57;;;;;;;;;;;11.50;99.90;;;;;;5060787;28;19998;-83
2021/11/03 14:23:24;;;;;;;;;;;11.30;99.90;;;;;;5055081;28;19916;-81
2021/11/03 14:25:50;;;;;;;;;;;11.30;99.90;;;;;;5052850;28;19913;-84
2021/11/03 14:28:17;;;;;;;;;;;11.30;99.90;;;;;;5055783;28;20373;-86
2021/11/03 14:30:47;;;;;;;;;;;11.20;99.90;;;;;;5053638;28;19959;-82
2021/11/03 14:33:30;;;;;;;;;;;11.20;99.90;;;;;;5060634;28;20296;-85